createdAt,value
2023-02-25T00:00:00.344Z,7.90
2023-02-25T00:02:04.450Z,7.90
2023-02-25T00:04:06.515Z,7.90
2023-02-25T00:06:12.563Z,7.80
2023-02-25T00:08:16.382Z,7.80
2023-02-25T00:10:18.461Z,7.80
2023-02-25T00:12:20.270Z,7.80
2023-02-25T00:14:22.185Z,7.80
2023-02-25T00:16:25.432Z,7.80
2023-02-25T00:18:28.336Z,7.70
2023-02-25T00:20:30.060Z,7.70
2023-02-25T00:22:31.856Z,7.70
2023-02-25T00:24:33.646Z,7.70
2023-02-25T00:26:35.301Z,7.70
2023-02-25T00:28:40.712Z,7.70
2023-02-25T00:30:42.919Z,7.70
2023-02-25T00:32:46.886Z,7.60
2023-02-25T00:34:48.981Z,7.60
2023-02-25T00:36:50.822Z,7.60
2023-02-25T00:38:55.752Z,7.60
2023-02-25T00:40:57.455Z,7.50
2023-02-25T00:42:59.326Z,7.50
2023-02-25T00:45:02.024Z,7.50
2023-02-25T00:47:04.986Z,7.50
2023-02-25T00:49:06.741Z,7.50
2023-02-25T00:51:26.660Z,7.50
2023-02-25T00:53:28.651Z,7.60
2023-02-25T00:55:33.170Z,7.50
2023-02-25T00:57:34.976Z,7.50
2023-02-25T00:59:36.883Z,7.50
2023-02-25T01:01:39.539Z,7.50
2023-02-25T01:03:41.373Z,7.50
2023-02-25T01:05:43.749Z,7.50
2023-02-25T01:07:45.650Z,7.50
2023-02-25T01:09:47.576Z,7.60
2023-02-25T01:11:50.292Z,7.60
2023-02-25T01:13:52.039Z,7.50
2023-02-25T01:15:53.872Z,7.60
2023-02-25T01:17:56.763Z,7.60
2023-02-25T01:19:59.889Z,7.60
2023-02-25T01:22:01.767Z,7.60
2023-02-25T01:24:10.974Z,7.50
2023-02-25T01:26:13.500Z,7.60
2023-02-25T01:28:15.251Z,7.60
2023-02-25T01:30:18.324Z,7.60
2023-02-25T01:32:20.240Z,7.60
2023-02-25T01:34:22.373Z,7.60
2023-02-25T01:36:24.881Z,7.60
2023-02-25T01:38:27.370Z,7.50
2023-02-25T01:40:29.114Z,7.50
2023-02-25T01:42:30.896Z,7.60
2023-02-25T01:44:35.115Z,7.60
2023-02-25T01:46:38.381Z,7.60
2023-02-25T01:48:40.962Z,7.60
2023-02-25T01:50:55.264Z,7.50
2023-02-25T01:53:01.896Z,7.60
2023-02-25T01:55:04.269Z,7.60
2023-02-25T01:57:10.322Z,7.50
2023-02-25T01:59:12.674Z,7.50
2023-02-25T02:01:18.133Z,7.50
2023-02-25T02:03:32.341Z,7.50
2023-02-25T02:06:12.335Z,7.50
2023-02-25T02:08:15.212Z,7.50
2023-02-25T02:10:19.570Z,7.50
2023-02-25T02:12:26.859Z,7.50
2023-02-25T02:14:36.347Z,7.50
2023-02-25T02:16:51.016Z,7.50
2023-02-25T02:18:58.191Z,7.50
2023-02-25T02:21:41.199Z,7.50
2023-02-25T02:24:09.198Z,7.50
2023-02-25T02:26:16.364Z,7.50
2023-02-25T02:28:23.773Z,7.50
2023-02-25T02:30:42.429Z,7.50
2023-02-25T02:33:06.177Z,7.40
2023-02-25T02:35:30.082Z,7.50
2023-02-25T02:37:53.632Z,7.50
2023-02-25T02:40:21.192Z,7.50
2023-02-25T02:42:38.092Z,7.50
2023-02-25T02:45:05.534Z,7.50
2023-02-25T02:47:14.950Z,7.50
2023-02-25T02:49:27.026Z,7.40
2023-02-25T02:51:41.660Z,7.40
2023-02-25T02:53:54.186Z,7.40
2023-02-25T02:56:00.593Z,7.40
2023-02-25T02:58:21.350Z,7.40
2023-02-25T03:00:28.227Z,7.40
2023-02-25T03:02:35.555Z,7.40
2023-02-25T03:04:41.226Z,7.30
2023-02-25T03:06:50.455Z,7.30
2023-02-25T03:09:02.158Z,7.30
2023-02-25T03:11:05.179Z,7.30
2023-02-25T03:13:07.002Z,7.30
2023-02-25T03:15:09.195Z,7.30
2023-02-25T03:17:13.429Z,7.20
2023-02-25T03:19:16.498Z,7.30
2023-02-25T03:21:28.059Z,7.30
2023-02-25T03:23:32.870Z,7.30
2023-02-25T03:25:47.504Z,7.30
2023-02-25T03:27:55.225Z,7.30
2023-02-25T03:30:07.306Z,7.20
2023-02-25T03:32:12.699Z,7.20
2023-02-25T03:34:20.048Z,7.20
2023-02-25T03:36:30.345Z,7.20
2023-02-25T03:38:34.748Z,7.30
2023-02-25T03:40:39.333Z,7.20
2023-02-25T03:43:09.697Z,7.30
2023-02-25T03:45:13.745Z,7.30
2023-02-25T03:47:17.079Z,7.20
2023-02-25T03:49:26.858Z,7.20
2023-02-25T03:51:33.360Z,7.30
2023-02-25T03:53:36.207Z,7.30
2023-02-25T03:55:46.795Z,7.20
2023-02-25T03:57:53.078Z,7.30
2023-02-25T03:59:56.577Z,7.20
2023-02-25T04:02:00.837Z,7.20
2023-02-25T04:04:02.872Z,7.20
2023-02-25T04:06:05.064Z,7.20
2023-02-25T04:08:16.185Z,7.20
2023-02-25T04:10:19.856Z,7.20
2023-02-25T04:12:21.691Z,7.20
2023-02-25T04:14:25.091Z,7.10
2023-02-25T04:16:26.776Z,7.10
2023-02-25T04:18:30.488Z,7.10
2023-02-25T04:20:32.969Z,7.10
2023-02-25T04:22:34.736Z,7.00
2023-02-25T04:24:36.594Z,7.10
2023-02-25T04:26:38.259Z,7.10
2023-02-25T04:28:40.012Z,7.10
2023-02-25T04:30:42.414Z,7.10
2023-02-25T04:32:44.650Z,7.10
2023-02-25T04:34:46.404Z,7.10
2023-02-25T04:36:48.352Z,7.00
2023-02-25T04:38:50.081Z,7.10
2023-02-25T04:40:52.479Z,7.10
2023-02-25T04:42:54.281Z,7.10
2023-02-25T04:44:56.078Z,7.10
2023-02-25T04:46:57.852Z,7.10
2023-02-25T04:49:00.097Z,7.10
2023-02-25T04:51:03.251Z,7.10
2023-02-25T04:53:06.324Z,7.10
2023-02-25T04:55:09.818Z,7.00
2023-02-25T04:57:12.368Z,7.10
2023-02-25T04:59:14.920Z,7.10
2023-02-25T05:01:16.744Z,7.10
2023-02-25T05:03:18.673Z,7.10
2023-02-25T05:05:20.448Z,7.10
2023-02-25T05:07:23.514Z,7.10
2023-02-25T05:09:25.206Z,7.10
2023-02-25T05:11:28.692Z,7.00
2023-02-25T05:13:30.843Z,7.10
2023-02-25T05:15:32.591Z,7.10
2023-02-25T05:17:34.843Z,7.10
2023-02-25T05:19:36.569Z,7.10
2023-02-25T05:21:38.378Z,7.00
2023-02-25T05:23:42.292Z,7.00
2023-02-25T05:25:44.127Z,7.00
2023-02-25T05:27:45.823Z,7.00
2023-02-25T05:29:47.729Z,7.00
2023-02-25T05:31:51.967Z,7.00
2023-02-25T05:33:54.045Z,7.00
2023-02-25T05:35:56.047Z,7.00
2023-02-25T05:37:58.169Z,7.00
2023-02-25T05:39:59.889Z,7.00
2023-02-25T05:42:01.719Z,7.00
2023-02-25T05:44:03.488Z,7.00
2023-02-25T05:46:11.408Z,7.00
2023-02-25T05:48:13.419Z,7.00
2023-02-25T05:50:15.262Z,7.00
2023-02-25T05:52:17.037Z,7.00
2023-02-25T05:54:18.765Z,7.00
2023-02-25T05:56:24.072Z,7.00
2023-02-25T05:58:26.279Z,7.00
2023-02-25T06:00:27.992Z,7.00
2023-02-25T06:02:29.873Z,7.00
2023-02-25T06:04:31.638Z,7.00
2023-02-25T06:06:33.333Z,7.00
2023-02-25T06:08:35.700Z,7.00
2023-02-25T06:10:39.143Z,7.00
2023-02-25T06:12:41.120Z,6.70
2023-02-25T06:14:43.115Z,7.00
2023-02-25T06:16:46.463Z,6.90
2023-02-25T06:18:49.535Z,6.90
2023-02-25T06:20:51.257Z,6.90
2023-02-25T06:22:52.989Z,6.90
2023-02-25T06:24:54.694Z,6.90
2023-02-25T06:26:56.902Z,6.90
2023-02-25T06:28:58.926Z,6.90
2023-02-25T06:31:01.191Z,6.90
2023-02-25T06:33:03.077Z,6.80
2023-02-25T06:35:06.516Z,6.80
2023-02-25T06:37:08.725Z,6.80
2023-02-25T06:39:11.738Z,6.80
2023-02-25T06:41:16.774Z,6.80
2023-02-25T06:43:18.929Z,6.80
2023-02-25T06:45:21.521Z,6.80
2023-02-25T06:47:23.325Z,6.80
2023-02-25T06:49:25.351Z,6.80
2023-02-25T06:51:27.642Z,6.70
2023-02-25T06:53:29.628Z,6.70
2023-02-25T06:55:31.328Z,6.80
2023-02-25T06:57:34.398Z,6.70
2023-02-25T06:59:36.200Z,6.70
2023-02-25T07:01:38.051Z,6.70
2023-02-25T07:03:40.133Z,6.70
2023-02-25T07:05:42.082Z,6.70
2023-02-25T07:07:43.793Z,6.70
2023-02-25T07:09:45.570Z,6.70
2023-02-25T07:11:47.286Z,6.70
2023-02-25T07:13:50.177Z,6.80
2023-02-25T07:15:52.007Z,6.80
2023-02-25T07:17:53.688Z,6.80
2023-02-25T07:19:56.084Z,6.80
2023-02-25T07:21:57.920Z,6.80
2023-02-25T07:23:59.996Z,6.80
2023-02-25T07:26:06.841Z,6.80
2023-02-25T07:28:08.583Z,6.80
2023-02-25T07:30:13.035Z,6.80
2023-02-25T07:32:14.902Z,6.80
2023-02-25T07:34:16.708Z,6.80
2023-02-25T07:36:18.584Z,6.80
2023-02-25T07:38:20.521Z,6.80
2023-02-25T07:40:22.282Z,6.80
2023-02-25T07:42:23.926Z,6.80
2023-02-25T07:44:26.475Z,6.80
2023-02-25T07:46:29.347Z,6.80
2023-02-25T07:48:31.762Z,6.90
2023-02-25T07:50:33.876Z,6.80
2023-02-25T07:52:36.856Z,6.90
2023-02-25T07:54:38.763Z,6.90
2023-02-25T07:56:40.998Z,6.90
2023-02-25T07:58:43.078Z,6.90
2023-02-25T08:00:46.177Z,6.90
2023-02-25T08:02:47.989Z,6.90
2023-02-25T08:04:50.015Z,6.90
2023-02-25T08:06:51.901Z,6.90
2023-02-25T08:08:55.209Z,6.90
2023-02-25T08:10:57.073Z,7.00
2023-02-25T08:12:58.848Z,7.00
2023-02-25T08:15:01.966Z,7.00
2023-02-25T08:17:04.015Z,7.00
2023-02-25T08:19:06.841Z,7.00
2023-02-25T08:21:14.263Z,7.00
2023-02-25T08:23:16.340Z,7.00
2023-02-25T08:25:18.776Z,7.10
2023-02-25T08:27:20.709Z,7.10
2023-02-25T08:29:23.567Z,7.10
2023-02-25T08:31:26.711Z,7.10
2023-02-25T08:33:29.933Z,7.10
2023-02-25T08:35:31.926Z,7.10
2023-02-25T08:37:33.799Z,7.10
2023-02-25T08:39:35.913Z,7.10
2023-02-25T08:41:37.782Z,7.10
2023-02-25T08:43:40.909Z,7.10
2023-02-25T08:45:42.844Z,7.20
2023-02-25T08:47:44.790Z,7.10
2023-02-25T08:49:47.619Z,7.10
2023-02-25T08:51:52.323Z,7.20
2023-02-25T08:53:54.031Z,7.20
2023-02-25T08:55:55.763Z,7.20
2023-02-25T08:57:57.672Z,7.20
2023-02-25T08:59:59.464Z,7.20
2023-02-25T09:02:06.272Z,7.20
2023-02-25T09:04:08.082Z,7.30
2023-02-25T09:06:10.477Z,7.30
2023-02-25T09:08:14.622Z,7.30
2023-02-25T09:10:16.939Z,7.30
2023-02-25T09:12:19.448Z,7.30
2023-02-25T09:14:21.938Z,7.40
2023-02-25T09:16:23.868Z,7.40
2023-02-25T09:18:25.990Z,7.40
2023-02-25T09:20:27.931Z,7.40
2023-02-25T09:22:33.030Z,7.50
2023-02-25T09:24:35.306Z,7.50
2023-02-25T09:26:37.284Z,7.50
2023-02-25T09:28:39.182Z,7.50
2023-02-25T09:30:41.139Z,7.50
2023-02-25T09:32:43.059Z,7.60
2023-02-25T09:34:45.005Z,7.60
2023-02-25T09:36:46.783Z,7.60
2023-02-25T09:38:49.815Z,7.70
2023-02-25T09:40:52.081Z,7.70
2023-02-25T09:43:31.681Z,7.70
2023-02-25T09:45:36.207Z,7.80
2023-02-25T09:48:09.820Z,7.80
2023-02-25T09:50:21.603Z,7.80
2023-02-25T09:52:47.211Z,7.90
2023-02-25T09:54:55.725Z,7.90
2023-02-25T09:57:00.770Z,8.00
2023-02-25T09:59:02.466Z,7.90
2023-02-25T10:01:36.579Z,7.90
2023-02-25T10:03:58.484Z,8.00
2023-02-25T10:06:22.777Z,8.00
2023-02-25T10:08:38.155Z,8.00
2023-02-25T10:10:49.251Z,8.00
2023-02-25T10:13:23.804Z,7.90
2023-02-25T10:15:53.014Z,7.90
2023-02-25T10:18:48.401Z,7.90
2023-02-25T10:21:01.503Z,7.90
2023-02-25T10:23:37.629Z,7.90
2023-02-25T10:25:48.744Z,7.90
2023-02-25T10:28:00.776Z,7.90
2023-02-25T10:30:19.033Z,7.90
2023-02-25T10:32:31.595Z,8.00
2023-02-25T10:34:38.947Z,8.00
2023-02-25T10:36:47.485Z,8.00
2023-02-25T10:38:51.929Z,8.10
2023-02-25T10:40:57.057Z,8.10
2023-02-25T10:43:18.338Z,8.10
2023-02-25T10:45:28.577Z,8.20
2023-02-25T10:47:36.268Z,8.20
2023-02-25T10:49:38.529Z,8.20
2023-02-25T10:51:56.972Z,8.20
2023-02-25T10:54:06.805Z,8.20
2023-02-25T10:56:10.395Z,8.20
2023-02-25T10:58:27.995Z,8.20
2023-02-25T11:00:32.782Z,8.20
2023-02-25T11:02:43.318Z,8.30
2023-02-25T11:04:45.888Z,8.30
2023-02-25T11:06:48.647Z,8.30
2023-02-25T11:08:52.143Z,8.30
2023-02-25T11:11:38.514Z,8.40
2023-02-25T11:13:40.960Z,8.40
2023-02-25T11:15:46.392Z,8.40
2023-02-25T11:17:48.423Z,8.40
2023-02-25T11:20:07.969Z,8.50
2023-02-25T11:22:20.089Z,8.50
2023-02-25T11:24:33.387Z,8.50
2023-02-25T11:26:38.004Z,8.50
2023-02-25T11:28:44.750Z,8.60
2023-02-25T11:30:46.723Z,8.60
2023-02-25T11:32:56.640Z,8.60
2023-02-25T11:35:09.253Z,8.70
2023-02-25T11:37:36.521Z,8.70
2023-02-25T11:39:53.308Z,8.80
2023-02-25T11:41:57.727Z,8.80
2023-02-25T11:44:20.091Z,8.80
2023-02-25T11:46:28.312Z,8.80
2023-02-25T11:48:50.561Z,8.80
2023-02-25T11:51:07.368Z,8.90
2023-02-25T11:53:32.478Z,8.90
2023-02-25T11:55:50.923Z,9.00
2023-02-25T11:58:04.708Z,9.00
2023-02-25T12:00:15.956Z,9.10
2023-02-25T12:02:47.869Z,9.10
2023-02-25T12:05:27.073Z,9.10
2023-02-25T12:07:34.681Z,9.20
2023-02-25T12:09:45.242Z,9.30
2023-02-25T12:11:58.597Z,9.30
2023-02-25T12:14:19.373Z,9.30
2023-02-25T12:16:35.840Z,9.30
2023-02-25T12:19:02.445Z,9.30
2023-02-25T12:21:39.846Z,9.40
2023-02-25T12:23:59.637Z,9.40
2023-02-25T12:26:11.153Z,9.50
2023-02-25T12:28:45.413Z,9.50
2023-02-25T12:31:10.330Z,9.50
2023-02-25T12:33:27.768Z,9.50
2023-02-25T12:35:41.736Z,9.50
2023-02-25T12:38:09.088Z,9.50
2023-02-25T12:40:47.110Z,9.50
2023-02-25T12:42:51.657Z,9.50
2023-02-25T12:45:05.599Z,9.50
2023-02-25T12:48:03.836Z,9.50
2023-02-25T12:50:31.013Z,9.50
2023-02-25T12:53:19.973Z,9.50
2023-02-25T12:55:36.594Z,9.60
2023-02-25T12:58:10.123Z,9.70
2023-02-25T13:00:42.635Z,9.70
2023-02-25T13:03:15.497Z,9.70
2023-02-25T13:05:42.663Z,9.70
2023-02-25T13:07:59.533Z,9.70
2023-02-25T13:10:22.247Z,9.80
2023-02-25T13:13:04.522Z,9.80
2023-02-25T13:15:38.500Z,9.90
2023-02-25T13:18:07.221Z,10.00
2023-02-25T13:20:21.036Z,10.10
2023-02-25T13:22:48.882Z,10.30
2023-02-25T13:25:10.626Z,10.50
2023-02-25T13:27:53.810Z,10.60
2023-02-25T13:30:12.243Z,10.90
2023-02-25T13:32:14.261Z,11.00
2023-02-25T13:34:24.887Z,11.10
2023-02-25T13:36:33.207Z,11.30
2023-02-25T13:38:40.754Z,11.50
2023-02-25T13:41:00.394Z,11.60
2023-02-25T13:43:03.398Z,11.70
2023-02-25T13:45:15.707Z,11.70
2023-02-25T13:47:52.972Z,11.80
2023-02-25T13:50:10.804Z,11.90
2023-02-25T13:52:27.783Z,11.80
2023-02-25T13:54:55.414Z,11.80
2023-02-25T13:57:12.867Z,11.80
2023-02-25T13:59:48.114Z,11.60
2023-02-25T14:02:03.922Z,11.60
2023-02-25T14:04:24.007Z,11.40
2023-02-25T14:06:59.922Z,11.30
2023-02-25T14:09:13.752Z,11.20
2023-02-25T14:11:53.751Z,11.10
2023-02-25T14:14:17.710Z,11.00
2023-02-25T14:16:28.808Z,10.80
2023-02-25T14:18:46.662Z,10.70
2023-02-25T14:21:07.579Z,10.50
2023-02-25T14:23:44.200Z,10.40
2023-02-25T14:26:10.462Z,10.20
2023-02-25T14:28:15.036Z,10.00
2023-02-25T14:30:19.752Z,9.80
2023-02-25T14:32:28.416Z,9.70
2023-02-25T14:34:56.096Z,9.50
2023-02-25T14:37:04.076Z,9.40
2023-02-25T14:39:33.499Z,9.30
2023-02-25T14:42:01.541Z,9.20
2023-02-25T14:44:17.507Z,9.20
2023-02-25T14:46:43.036Z,9.10
2023-02-25T14:49:01.231Z,9.10
2023-02-25T14:51:24.688Z,9.00
2023-02-25T14:53:35.321Z,9.00
2023-02-25T14:55:55.386Z,9.20
2023-02-25T14:58:06.240Z,8.90
2023-02-25T15:00:26.985Z,8.90
2023-02-25T15:03:01.329Z,8.80
2023-02-25T15:05:35.888Z,8.80
2023-02-25T15:07:46.246Z,8.80
2023-02-25T15:10:31.017Z,8.80
2023-02-25T15:12:52.869Z,8.80
2023-02-25T15:15:14.193Z,8.80
2023-02-25T15:17:24.811Z,8.80
2023-02-25T15:19:32.319Z,8.80
2023-02-25T15:21:38.707Z,8.80
2023-02-25T15:23:50.826Z,8.80
2023-02-25T15:26:31.674Z,8.90
2023-02-25T15:28:35.050Z,8.90
2023-02-25T15:31:08.535Z,8.80
2023-02-25T15:33:40.486Z,8.80
2023-02-25T15:35:42.180Z,8.80
2023-02-25T15:37:50.216Z,8.80
2023-02-25T15:39:56.457Z,8.90
2023-02-25T15:42:03.717Z,9.00
2023-02-25T15:44:30.591Z,9.10
2023-02-25T15:46:39.332Z,9.20
2023-02-25T15:48:42.494Z,9.30
2023-02-25T15:50:46.214Z,9.40
2023-02-25T15:52:54.433Z,9.40
2023-02-25T15:55:19.060Z,9.50
2023-02-25T15:57:24.618Z,9.60
2023-02-25T15:59:47.467Z,9.60
2023-02-25T16:01:49.236Z,9.60
2023-02-25T16:03:52.481Z,9.50
2023-02-25T16:05:58.987Z,9.50
2023-02-25T16:08:23.072Z,9.40
2023-02-25T16:10:33.177Z,9.40
2023-02-25T16:12:35.273Z,9.40
2023-02-25T16:14:41.421Z,9.30
2023-02-25T16:16:50.403Z,9.30
2023-02-25T16:18:53.065Z,9.30
2023-02-25T16:21:01.705Z,9.20
2023-02-25T16:23:03.857Z,9.20
2023-02-25T16:25:16.613Z,9.20
2023-02-25T16:27:21.548Z,9.10
2023-02-25T16:29:29.184Z,9.10
2023-02-25T16:31:34.668Z,9.00
2023-02-25T16:33:52.660Z,8.90
2023-02-25T16:36:20.027Z,8.80
2023-02-25T16:38:41.427Z,8.60
2023-02-25T16:40:44.940Z,8.60
2023-02-25T16:42:46.845Z,8.40
2023-02-25T16:45:00.081Z,8.30
2023-02-25T16:47:03.228Z,8.30
2023-02-25T16:49:17.997Z,8.20
2023-02-25T16:51:24.866Z,8.10
2023-02-25T16:53:27.317Z,8.00
2023-02-25T16:55:35.909Z,7.90
2023-02-25T16:57:40.063Z,7.90
2023-02-25T16:59:41.934Z,7.90
2023-02-25T17:01:47.963Z,7.80
2023-02-25T17:03:49.789Z,7.80
2023-02-25T17:06:08.857Z,7.80
2023-02-25T17:08:16.745Z,7.80
2023-02-25T17:10:25.933Z,7.80
2023-02-25T17:12:40.742Z,7.70
2023-02-25T17:14:48.295Z,7.70
2023-02-25T17:16:50.303Z,7.70
2023-02-25T17:18:58.476Z,7.50
2023-02-25T17:21:14.789Z,7.60
2023-02-25T17:23:17.519Z,7.50
2023-02-25T17:25:30.793Z,7.50
2023-02-25T17:27:33.944Z,7.40
2023-02-25T17:29:36.764Z,7.40
2023-02-25T17:31:50.998Z,7.40
2023-02-25T17:34:02.599Z,7.30
2023-02-25T17:36:13.927Z,7.30
2023-02-25T17:38:19.888Z,7.30
2023-02-25T17:40:25.704Z,7.20
2023-02-25T17:42:32.135Z,7.20
2023-02-25T17:44:36.849Z,7.20
2023-02-25T17:46:44.189Z,7.10
2023-02-25T17:48:52.937Z,7.10
2023-02-25T17:51:07.839Z,7.00
2023-02-25T17:53:35.287Z,7.00
2023-02-25T17:55:37.067Z,6.90
2023-02-25T17:57:42.438Z,6.90
2023-02-25T17:59:52.659Z,6.80
2023-02-25T18:01:58.023Z,6.80
2023-02-25T18:04:06.185Z,6.70
2023-02-25T18:06:33.392Z,6.70
2023-02-25T18:08:54.520Z,6.70
2023-02-25T18:11:35.162Z,6.70
2023-02-25T18:13:44.895Z,6.60
2023-02-25T18:15:53.218Z,6.50
2023-02-25T18:18:07.389Z,6.50
2023-02-25T18:20:31.686Z,6.40
2023-02-25T18:22:49.330Z,6.40
2023-02-25T18:24:57.104Z,6.40
2023-02-25T18:27:21.536Z,6.30
2023-02-25T18:29:24.158Z,6.20
2023-02-25T18:31:26.445Z,6.20
2023-02-25T18:33:31.785Z,6.20
2023-02-25T18:35:33.484Z,6.10
2023-02-25T18:37:35.258Z,6.10
2023-02-25T18:39:37.303Z,6.10
2023-02-25T18:41:39.442Z,6.10
2023-02-25T18:43:42.749Z,6.00
2023-02-25T18:45:45.611Z,6.00
2023-02-25T18:47:48.173Z,6.00
2023-02-25T18:49:50.027Z,6.00
2023-02-25T18:51:52.412Z,6.00
2023-02-25T18:53:54.209Z,5.90
2023-02-25T18:55:57.254Z,5.90
2023-02-25T18:58:02.784Z,6.00
2023-02-25T19:00:05.736Z,5.90
2023-02-25T19:02:27.723Z,5.90
2023-02-25T19:04:29.510Z,5.90
2023-02-25T19:06:33.782Z,5.80
2023-02-25T19:08:35.755Z,5.80
2023-02-25T19:10:37.492Z,5.80
2023-02-25T19:12:39.518Z,5.80
2023-02-25T19:14:42.867Z,5.80
2023-02-25T19:16:44.657Z,5.70
2023-02-25T19:18:47.399Z,5.70
2023-02-25T19:20:49.311Z,5.70
2023-02-25T19:22:53.252Z,5.60
2023-02-25T19:24:55.307Z,5.60
2023-02-25T19:26:59.482Z,5.60
2023-02-25T19:29:01.200Z,5.60
2023-02-25T19:31:05.914Z,5.60
2023-02-25T19:33:09.806Z,5.60
2023-02-25T19:35:11.965Z,5.50
2023-02-25T19:37:15.154Z,5.50
2023-02-25T19:39:17.350Z,5.50
2023-02-25T19:41:19.217Z,5.40
2023-02-25T19:43:21.282Z,5.40
2023-02-25T19:45:24.481Z,5.40
2023-02-25T19:47:26.303Z,5.40
2023-02-25T19:49:30.783Z,5.40
2023-02-25T19:51:33.966Z,5.40
2023-02-25T19:53:36.588Z,5.30
2023-02-25T19:55:39.079Z,5.30
2023-02-25T19:57:42.560Z,5.20
2023-02-25T19:59:44.435Z,5.20
2023-02-25T20:01:47.149Z,5.20
2023-02-25T20:03:49.218Z,5.20
2023-02-25T20:05:52.156Z,5.10
2023-02-25T20:07:53.978Z,5.10
2023-02-25T20:09:55.731Z,5.10
2023-02-25T20:11:57.630Z,5.10
2023-02-25T20:14:05.899Z,5.00
2023-02-25T20:16:11.206Z,5.00
2023-02-25T20:18:13.168Z,5.00
2023-02-25T20:20:21.862Z,4.90
2023-02-25T20:22:23.830Z,5.00
2023-02-25T20:24:26.037Z,4.90
2023-02-25T20:26:30.449Z,4.80
2023-02-25T20:28:32.430Z,4.80
2023-02-25T20:30:34.560Z,4.80
2023-02-25T20:32:36.309Z,4.70
2023-02-25T20:34:38.400Z,4.70
2023-02-25T20:37:10.677Z,4.70
2023-02-25T20:39:31.081Z,4.70
2023-02-25T20:41:32.920Z,4.70
2023-02-25T20:43:34.770Z,4.60
2023-02-25T20:45:36.943Z,4.60
2023-02-25T20:47:40.093Z,4.60
2023-02-25T20:49:41.931Z,4.60
2023-02-25T20:51:46.275Z,4.60
2023-02-25T20:53:48.659Z,4.60
2023-02-25T20:55:52.926Z,4.60
2023-02-25T20:57:54.632Z,4.60
2023-02-25T20:59:56.493Z,4.50
2023-02-25T21:02:00.116Z,4.50
2023-02-25T21:04:01.883Z,4.50
2023-02-25T21:06:04.055Z,4.50
2023-02-25T21:08:06.953Z,4.50
2023-02-25T21:10:10.306Z,4.40
2023-02-25T21:12:12.281Z,4.50
2023-02-25T21:14:14.979Z,4.40
2023-02-25T21:16:17.322Z,4.40
2023-02-25T21:18:19.367Z,4.40
2023-02-25T21:20:21.193Z,4.40
2023-02-25T21:22:22.984Z,4.40
2023-02-25T21:24:27.179Z,4.40
2023-02-25T21:26:29.982Z,4.40
2023-02-25T21:28:32.866Z,4.40
2023-02-25T21:30:34.866Z,4.40
2023-02-25T21:32:36.788Z,4.40
2023-02-25T21:34:38.642Z,4.40
2023-02-25T21:36:41.784Z,4.30
2023-02-25T21:38:43.613Z,4.40
2023-02-25T21:40:45.769Z,4.40
2023-02-25T21:42:48.004Z,4.40
2023-02-25T21:44:49.785Z,4.40
2023-02-25T21:46:51.956Z,4.40
2023-02-25T21:48:55.861Z,4.30
2023-02-25T21:50:58.230Z,4.40
2023-02-25T21:53:00.081Z,4.30
2023-02-25T21:55:02.261Z,4.30
2023-02-25T21:57:04.163Z,4.30
2023-02-25T21:59:05.992Z,4.30
2023-02-25T22:01:17.422Z,4.30
2023-02-25T22:03:19.193Z,4.30
2023-02-25T22:05:21.018Z,4.20
2023-02-25T22:07:22.814Z,4.20
2023-02-25T22:09:24.558Z,4.10
2023-02-25T22:11:35.207Z,4.20
2023-02-25T22:13:37.010Z,4.20
2023-02-25T22:15:39.086Z,4.20
2023-02-25T22:17:40.913Z,4.10
2023-02-25T22:19:42.716Z,4.10
2023-02-25T22:21:44.801Z,4.10
2023-02-25T22:23:48.739Z,4.10
2023-02-25T22:25:50.495Z,4.10
2023-02-25T22:27:52.519Z,4.10
2023-02-25T22:29:54.269Z,4.10
2023-02-25T22:31:56.110Z,4.00
2023-02-25T22:33:58.018Z,4.00
2023-02-25T22:36:02.215Z,4.00
2023-02-25T22:38:04.034Z,4.00
2023-02-25T22:40:06.492Z,4.00
2023-02-25T22:42:08.233Z,3.90
2023-02-25T22:44:09.976Z,3.90
2023-02-25T22:46:16.064Z,3.90
2023-02-25T22:48:18.008Z,3.90
2023-02-25T22:50:21.043Z,3.90
2023-02-25T22:52:22.988Z,3.80
2023-02-25T22:54:25.100Z,3.90
2023-02-25T22:56:27.583Z,3.80
2023-02-25T22:58:30.125Z,3.80
2023-02-25T23:00:40.214Z,3.80
2023-02-25T23:02:45.222Z,3.80
2023-02-25T23:04:47.134Z,3.80
2023-02-25T23:06:50.679Z,3.70
2023-02-25T23:08:52.878Z,3.70
2023-02-25T23:10:54.793Z,3.70
2023-02-25T23:13:00.600Z,3.70
2023-02-25T23:15:02.261Z,3.70
2023-02-25T23:17:04.507Z,3.70
2023-02-25T23:19:10.700Z,3.60
2023-02-25T23:21:19.002Z,3.60
2023-02-25T23:23:21.198Z,3.60
2023-02-25T23:25:23.065Z,3.60
2023-02-25T23:27:24.838Z,3.60
2023-02-25T23:29:27.128Z,3.60
2023-02-25T23:31:35.822Z,3.60
2023-02-25T23:33:37.699Z,3.60
2023-02-25T23:35:43.584Z,3.60
2023-02-25T23:37:47.017Z,3.60
2023-02-25T23:39:50.220Z,3.50
2023-02-25T23:41:52.269Z,3.50
2023-02-25T23:43:55.397Z,3.50
2023-02-25T23:45:57.481Z,3.50
2023-02-25T23:47:59.777Z,3.50
2023-02-25T23:50:01.532Z,3.50
2023-02-25T23:52:03.885Z,3.50
2023-02-25T23:54:06.576Z,3.50
2023-02-25T23:56:10.510Z,3.50
2023-02-25T23:58:12.215Z,3.50
